Time,TemperatureF,DewpointF,PressureIn,WindDirection,WindDirectionDegrees,WindSpeedMPH,WindSpeedGustMPH,Humidity,HourlyPrecipIn,Conditions,Clouds,dailyrainin,SoftwareType,DateUTC
2013-06-19 00:01:00,68.2,66.4,29.91,WSW,251,0.0,0.0,94,0.00,,-RA,0.00,VWS V12.08,2013-06-19 04:01:00,
2013-06-19 00:06:00,68.0,66.2,29.94,WSW,251,0.0,0.0,94,0.00,,-RA,0.00,VWS V12.08,2013-06-19 04:06:00,
2013-06-19 00:11:00,67.9,66.1,29.94,WSW,251,0.0,0.0,94,0.00,,-RA,0.00,VWS V12.08,2013-06-19 04:11:00,
2013-06-19 00:16:00,67.9,66.1,29.94,WSW,251,0.0,0.0,94,0.00,,-RA,0.00,VWS V12.08,2013-06-19 04:16:00,
2013-06-19 00:21:00,67.7,65.9,29.94,WSW,251,0.0,0.0,94,0.00,,-RA,0.00,VWS V12.08,2013-06-19 04:21:00,
2013-06-19 00:26:00,67.5,65.7,29.94,WSW,251,0.0,0.0,94,0.00,,-RA,0.00,VWS V12.08,2013-06-19 04:26:00,
2013-06-19 00:31:00,67.5,65.7,29.94,WSW,251,0.0,0.0,94,0.00,,-RA,0.00,VWS V12.08,2013-06-19 04:31:00,
2013-06-19 00:36:00,67.5,65.7,29.94,WSW,251,0.0,0.0,94,0.00,,-RA,0.00,VWS V12.08,2013-06-19 04:36:00,
2013-06-19 00:41:00,67.5,65.7,29.94,WSW,251,0.0,0.0,94,0.00,,-RA,0.00,VWS V12.08,2013-06-19 04:41:00,
2013-06-19 00:46:00,67.5,65.7,29.94,WSW,251,0.0,0.0,94,0.00,,-RA,0.00,VWS V12.08,2013-06-19 04:46:00,
2013-06-19 00:51:00,67.5,65.7,29.94,WSW,251,0.0,0.0,94,0.00,,-RA,0.00,VWS V12.08,2013-06-19 04:51:00,
2013-06-19 00:56:00,67.5,65.7,29.94,WSW,251,0.0,0.0,94,0.00,,-RA,0.00,VWS V12.08,2013-06-19 04:56:00,
2013-06-19 01:01:00,67.3,65.8,29.94,ESE,120,2.2,3.6,95,0.00,,OVC100,0.00,VWS V12.08,2013-06-19 05:01:00,
2013-06-19 01:06:00,67.5,66.0,29.91,NE,49,0.0,3.1,95,0.00,,OVC100,0.00,VWS V12.08,2013-06-19 05:06:00,
2013-06-19 01:11:00,67.3,65.8,29.91,NNE,29,0.0,3.6,95,0.00,,OVC100,0.00,VWS V12.08,2013-06-19 05:11:00,
2013-06-19 01:16:00,67.3,65.8,29.91,NE,39,0.0,2.2,95,0.00,,OVC100,0.00,VWS V12.08,2013-06-19 05:16:00,
2013-06-19 01:21:00,67.3,65.8,29.91,NE,44,0.0,2.2,95,0.00,,OVC100,0.00,VWS V12.08,2013-06-19 05:21:00,
2013-06-19 01:26:00,67.3,65.8,29.91,NE,44,0.0,0.0,95,0.00,,OVC100,0.00,VWS V12.08,2013-06-19 05:26:00,
2013-06-19 01:31:00,67.1,65.7,29.91,NE,44,0.0,0.0,95,0.00,,OVC100,0.00,VWS V12.08,2013-06-19 05:31:00,
2013-06-19 01:36:00,67.1,65.7,29.94,NE,44,0.0,0.0,95,0.00,,OVC100,0.00,VWS V12.08,2013-06-19 05:36:00,
2013-06-19 01:41:00,67.1,65.7,29.94,NE,44,0.0,0.0,95,0.00,,OVC100,0.00,VWS V12.08,2013-06-19 05:41:00,
2013-06-19 01:46:00,67.1,66.0,29.94,ENE,72,0.0,0.0,96,0.00,,OVC100,0.00,VWS V12.08,2013-06-19 05:46:00,
2013-06-19 01:51:00,67.0,65.5,29.94,WNW,282,0.0,0.0,95,0.00,,OVC100,0.00,VWS V12.08,2013-06-19 05:51:00,
2013-06-19 01:56:00,66.8,65.3,29.94,NNE,33,0.0,4.0,95,0.00,,OVC100,0.00,VWS V12.08,2013-06-19 05:56:00,
2013-06-19 02:01:00,66.6,65.1,29.94,NE,44,2.2,2.7,95,0.00,,BKN100,0.00,VWS V12.08,2013-06-19 06:01:00,
2013-06-19 02:06:00,66.4,64.3,29.94,NNE,19,0.0,0.0,93,0.00,,BKN100,0.00,VWS V12.08,2013-06-19 06:06:00,
2013-06-19 02:12:00,65.9,63.5,29.94,NNE,13,2.2,4.0,92,0.00,,BKN100,0.00,VWS V12.08,2013-06-19 06:12:00,
2013-06-19 02:17:00,66.1,63.4,29.94,NNE,13,2.7,2.7,91,0.00,,BKN100,0.00,VWS V12.08,2013-06-19 06:17:00,
2013-06-19 02:22:00,65.7,62.7,29.94,NE,36,0.0,2.7,90,0.00,,BKN100,0.00,VWS V12.08,2013-06-19 06:22:00,
2013-06-19 02:27:00,65.3,62.0,29.94,NNE,22,2.2,4.0,89,0.00,,BKN100,0.00,VWS V12.08,2013-06-19 06:27:00,
2013-06-19 02:32:00,65.3,61.7,29.94,NNE,20,2.7,3.6,88,0.00,,BKN100,0.00,VWS V12.08,2013-06-19 06:32:00,
2013-06-19 02:37:00,65.2,61.2,29.94,NE,36,2.7,3.6,87,0.00,,BKN100,0.00,VWS V12.08,2013-06-19 06:37:00,
2013-06-19 02:42:00,64.8,60.2,29.94,North,6,4.9,7.6,85,0.00,,BKN100,0.00,VWS V12.08,2013-06-19 06:42:00,
2013-06-19 02:47:00,64.8,60.2,29.94,NNE,24,3.1,5.4,85,0.00,,BKN100,0.00,VWS V12.08,2013-06-19 06:47:00,
2013-06-19 02:52:00,64.8,59.9,29.94,NE,50,6.3,6.3,84,0.00,,BKN100,0.00,VWS V12.08,2013-06-19 06:52:00,
2013-06-19 02:57:00,64.3,58.7,29.94,NNE,18,6.3,6.3,82,0.00,,BKN100,0.00,VWS V12.08,2013-06-19 06:57:00,
2013-06-19 03:02:00,64.3,58.7,29.94,NE,49,3.6,4.9,82,0.00,,OVC110,0.00,VWS V12.08,2013-06-19 07:02:00,
2013-06-19 03:07:00,63.9,58.3,29.94,NE,50,7.6,7.6,82,0.00,,OVC110,0.00,VWS V12.08,2013-06-19 07:07:00,
2013-06-19 03:12:00,64.3,59.0,29.94,NE,34,2.7,3.6,83,0.00,,OVC110,0.00,VWS V12.08,2013-06-19 07:12:00,
2013-06-19 03:17:00,64.1,58.5,29.94,NE,40,3.1,4.0,82,0.00,,OVC110,0.00,VWS V12.08,2013-06-19 07:17:00,
2013-06-19 03:22:00,64.1,58.8,29.94,NE,37,4.0,4.9,83,0.00,,OVC110,0.00,VWS V12.08,2013-06-19 07:22:00,
2013-06-19 03:27:00,63.9,58.3,29.94,NE,43,4.0,4.0,82,0.00,,OVC110,0.00,VWS V12.08,2013-06-19 07:27:00,
2013-06-19 03:32:00,63.9,58.3,29.94,NNE,27,4.0,5.4,82,0.00,,OVC110,0.00,VWS V12.08,2013-06-19 07:32:00,
2013-06-19 03:37:00,63.7,58.1,29.94,NNE,28,4.0,7.6,82,0.00,,OVC110,0.00,VWS V12.08,2013-06-19 07:37:00,
2013-06-19 03:42:00,63.7,58.5,29.94,NE,45,4.0,5.8,83,0.00,,OVC110,0.00,VWS V12.08,2013-06-19 07:42:00,
2013-06-19 03:47:00,63.5,58.0,29.94,NE,37,3.1,5.8,82,0.00,,OVC110,0.00,VWS V12.08,2013-06-19 07:47:00,
2013-06-19 03:52:00,63.4,57.8,29.94,NNE,27,2.2,6.3,82,0.00,,OVC110,0.00,VWS V12.08,2013-06-19 07:52:00,
2013-06-19 03:57:00,63.4,57.8,29.94,North,9,0.0,0.0,82,0.00,,OVC110,0.00,VWS V12.08,2013-06-19 07:57:00,
2013-06-19 04:02:00,63.2,57.6,29.94,NE,34,0.0,0.0,82,0.00,,CLR,0.00,VWS V12.08,2013-06-19 08:02:00,
2013-06-19 04:07:00,63.2,57.6,29.94,NE,45,0.0,0.0,82,0.00,,CLR,0.00,VWS V12.08,2013-06-19 08:07:00,
2013-06-19 04:12:00,63.2,57.9,29.94,NE,50,0.0,0.0,83,0.00,,CLR,0.00,VWS V12.08,2013-06-19 08:12:00,
2013-06-19 04:17:00,63.0,57.4,29.94,NE,36,0.0,0.0,82,0.00,,CLR,0.00,VWS V12.08,2013-06-19 08:17:00,
2013-06-19 04:22:00,63.0,57.4,29.94,NE,34,0.0,0.0,82,0.00,,CLR,0.00,VWS V12.08,2013-06-19 08:22:00,
2013-06-19 04:27:00,63.0,57.8,29.94,NE,41,0.0,0.0,83,0.00,,CLR,0.00,VWS V12.08,2013-06-19 08:27:00,
2013-06-19 04:32:00,62.8,57.6,29.94,NNE,27,0.0,0.0,83,0.00,,CLR,0.00,VWS V12.08,2013-06-19 08:32:00,
2013-06-19 04:37:00,62.8,57.6,29.94,NNE,27,0.0,0.0,83,0.00,,CLR,0.00,VWS V12.08,2013-06-19 08:37:00,
2013-06-19 04:42:00,63.0,57.8,29.94,NE,42,0.0,0.0,83,0.00,,CLR,0.00,VWS V12.08,2013-06-19 08:42:00,
2013-06-19 04:47:00,63.0,58.1,29.94,NE,48,0.0,0.0,84,0.00,,CLR,0.00,VWS V12.08,2013-06-19 08:47:00,
2013-06-19 04:52:00,62.8,57.6,29.94,ENE,57,0.0,0.0,83,0.00,,CLR,0.00,VWS V12.08,2013-06-19 08:52:00,
2013-06-19 04:57:00,62.8,57.6,29.94,NNE,28,0.0,0.0,83,0.00,,CLR,0.00,VWS V12.08,2013-06-19 08:57:00,
2013-06-19 05:02:00,62.8,57.6,29.94,NE,44,0.0,0.0,83,0.00,,CLR,0.00,VWS V12.08,2013-06-19 09:02:00,
2013-06-19 05:07:00,63.0,57.8,29.94,NE,44,0.0,0.0,83,0.00,,CLR,0.00,VWS V12.08,2013-06-19 09:07:00,
2013-06-19 05:12:00,63.0,57.8,29.94,NNE,32,0.0,0.0,83,0.00,,CLR,0.00,VWS V12.08,2013-06-19 09:12:00,
2013-06-19 05:17:00,62.8,57.6,29.94,NE,40,0.0,0.0,83,0.00,,CLR,0.00,VWS V12.08,2013-06-19 09:17:00,
2013-06-19 05:22:00,62.6,57.4,29.94,NE,38,0.0,0.0,83,0.00,,CLR,0.00,VWS V12.08,2013-06-19 09:22:00,
2013-06-19 05:27:00,62.6,57.4,29.94,NE,53,0.0,0.0,83,0.00,,CLR,0.00,VWS V12.08,2013-06-19 09:27:00,
2013-06-19 05:32:00,62.6,57.4,29.94,NE,46,0.0,0.0,83,0.00,,CLR,0.00,VWS V12.08,2013-06-19 09:32:00,
2013-06-19 05:37:00,62.6,57.4,29.94,ENE,62,0.0,0.0,83,0.00,,CLR,0.00,VWS V12.08,2013-06-19 09:37:00,
2013-06-19 05:42:00,62.6,57.7,29.94,ENE,62,0.0,0.0,84,0.00,,CLR,0.00,VWS V12.08,2013-06-19 09:42:00,
2013-06-19 05:47:00,62.6,57.7,29.94,North,10,0.0,0.0,84,0.00,,CLR,0.00,VWS V12.08,2013-06-19 09:47:00,
2013-06-19 05:52:00,62.5,57.2,29.97,NE,45,0.0,0.0,83,0.00,,CLR,0.00,VWS V12.08,2013-06-19 09:52:00,
2013-06-19 05:57:00,62.5,57.2,29.97,NE,45,0.0,0.0,83,0.00,,CLR,0.00,VWS V12.08,2013-06-19 09:57:00,
2013-06-19 06:02:00,62.6,57.7,29.97,NE,45,0.0,0.0,84,0.00,,OVC014,0.00,VWS V12.08,2013-06-19 10:02:00,
2013-06-19 06:07:00,62.8,57.9,29.97,NE,45,0.0,0.0,84,0.00,,OVC014,0.00,VWS V12.08,2013-06-19 10:07:00,
2013-06-19 06:12:00,63.0,58.1,29.97,NE,45,0.0,0.0,84,0.00,,OVC014,0.00,VWS V12.08,2013-06-19 10:12:00,
2013-06-19 06:17:00,62.8,57.9,29.97,NE,45,0.0,0.0,84,0.00,,OVC014,0.00,VWS V12.08,2013-06-19 10:17:00,
2013-06-19 06:22:00,62.8,57.9,29.97,NE,45,0.0,0.0,84,0.00,,OVC014,0.00,VWS V12.08,2013-06-19 10:22:00,
2013-06-19 06:27:00,62.8,57.9,29.97,NE,45,0.0,0.0,84,0.00,,OVC014,0.00,VWS V12.08,2013-06-19 10:27:00,
2013-06-19 06:32:00,62.6,57.4,29.97,NE,45,0.0,0.0,83,0.00,,OVC014,0.00,VWS V12.08,2013-06-19 10:32:00,
2013-06-19 06:37:00,62.6,57.4,29.97,NE,47,0.0,0.0,83,0.00,,OVC014,0.00,VWS V12.08,2013-06-19 10:37:00,
2013-06-19 06:42:00,62.6,57.4,29.97,NE,44,0.0,0.0,83,0.00,,OVC014,0.00,VWS V12.08,2013-06-19 10:42:00,
2013-06-19 06:47:00,62.8,57.6,29.97,NE,44,0.0,0.0,83,0.00,,OVC014,0.00,VWS V12.08,2013-06-19 10:47:00,
2013-06-19 06:52:00,62.8,57.6,29.97,NE,34,0.0,0.0,83,0.00,,OVC014,0.00,VWS V12.08,2013-06-19 10:52:00,
2013-06-19 06:57:00,62.8,57.6,29.97,NE,36,0.0,0.0,83,0.00,,OVC014,0.00,VWS V12.08,2013-06-19 10:57:00,
2013-06-19 07:02:00,62.6,57.4,29.97,NNE,17,0.0,0.0,83,0.00,,OVC014,0.00,VWS V12.08,2013-06-19 11:02:00,
2013-06-19 07:07:00,62.6,57.7,29.97,NNE,15,0.0,0.0,84,0.00,,OVC014,0.00,VWS V12.08,2013-06-19 11:07:00,
2013-06-19 07:12:00,62.8,58.2,29.97,NNE,31,0.0,0.0,85,0.00,,OVC014,0.00,VWS V12.08,2013-06-19 11:12:00,
2013-06-19 07:17:00,62.8,58.2,29.97,NE,38,0.0,0.0,85,0.00,,OVC014,0.00,VWS V12.08,2013-06-19 11:17:00,
2013-06-19 07:22:00,62.8,57.9,29.97,NNE,31,0.0,0.0,84,0.00,,OVC014,0.00,VWS V12.08,2013-06-19 11:22:00,
2013-06-19 07:27:00,62.8,58.2,29.97,NE,35,0.0,0.0,85,0.00,,OVC014,0.00,VWS V12.08,2013-06-19 11:27:00,
2013-06-19 07:32:00,62.8,58.2,29.97,NE,51,0.0,0.0,85,0.00,,OVC014,0.00,VWS V12.08,2013-06-19 11:32:00,
2013-06-19 07:37:00,62.8,58.2,30.00,NE,54,0.0,0.0,85,0.00,,OVC014,0.00,VWS V12.08,2013-06-19 11:37:00,
2013-06-19 07:42:00,63.0,58.4,30.00,ENE,58,0.0,0.0,85,0.00,,OVC014,0.00,VWS V12.08,2013-06-19 11:42:00,
2013-06-19 07:47:00,63.2,58.6,30.00,NE,46,0.0,0.0,85,0.00,,OVC014,0.00,VWS V12.08,2013-06-19 11:47:00,
2013-06-19 07:52:00,63.2,58.3,30.00,NE,43,0.0,0.0,84,0.00,,OVC014,0.00,VWS V12.08,2013-06-19 11:52:00,
2013-06-19 07:57:00,63.2,58.3,30.00,NNE,25,0.0,0.0,84,0.00,,OVC014,0.00,VWS V12.08,2013-06-19 11:57:00,
2013-06-19 08:02:00,63.4,58.8,30.00,NNE,28,0.0,0.0,85,0.00,,OVC014,0.00,VWS V12.08,2013-06-19 12:02:00,
2013-06-19 08:07:00,63.4,58.5,30.00,NE,55,0.0,0.0,84,0.00,,OVC014,0.00,VWS V12.08,2013-06-19 12:07:00,
2013-06-19 08:12:00,63.5,59.0,30.00,North,357,0.0,0.0,85,0.00,,OVC014,0.00,VWS V12.08,2013-06-19 12:12:00,
2013-06-19 08:17:00,63.5,59.0,30.00,ENE,65,0.0,0.0,85,0.00,,OVC014,0.00,VWS V12.08,2013-06-19 12:17:00,
2013-06-19 08:22:00,63.5,58.6,30.00,NE,37,0.0,0.0,84,0.00,,OVC014,0.00,VWS V12.08,2013-06-19 12:22:00,
2013-06-19 08:27:00,63.5,58.3,30.00,North,1,0.0,0.0,83,0.00,,OVC014,0.00,VWS V12.08,2013-06-19 12:27:00,
2013-06-19 08:32:00,63.5,58.3,30.00,NE,38,0.0,0.0,83,0.00,,OVC014,0.00,VWS V12.08,2013-06-19 12:32:00,
2013-06-19 08:37:00,63.5,58.3,30.00,North,8,0.0,0.0,83,0.00,,OVC014,0.00,VWS V12.08,2013-06-19 12:37:00,
2013-06-19 08:42:00,63.7,58.5,30.00,North,11,0.0,0.0,83,0.00,,OVC014,0.00,VWS V12.08,2013-06-19 12:42:00,
2013-06-19 08:47:00,63.9,58.6,30.00,NNE,30,0.0,0.0,83,0.00,,OVC014,0.00,VWS V12.08,2013-06-19 12:47:00,
2013-06-19 08:52:00,63.9,58.3,30.03,NNE,33,0.0,0.0,82,0.00,,OVC014,0.00,VWS V12.08,2013-06-19 12:52:00,
2013-06-19 08:57:00,63.7,58.5,30.03,NE,46,0.0,0.0,83,0.00,,OVC014,0.00,VWS V12.08,2013-06-19 12:57:00,
2013-06-19 09:02:00,63.9,58.3,30.03,ESE,123,0.0,0.0,82,0.00,,OVC014,0.00,VWS V12.08,2013-06-19 13:02:00,
2013-06-19 09:07:00,64.3,58.7,30.03,North,11,0.0,0.0,82,0.00,,OVC014,0.00,VWS V12.08,2013-06-19 13:07:00,
2013-06-19 09:12:00,64.4,58.5,30.03,NW,308,0.0,0.0,81,0.00,,OVC014,0.00,VWS V12.08,2013-06-19 13:12:00,
2013-06-19 09:17:00,64.8,58.5,30.03,North,6,0.0,0.0,80,0.00,,OVC012,0.00,VWS V12.08,2013-06-19 13:17:00,
2013-06-19 09:22:00,65.3,59.0,30.03,NNW,338,0.0,0.0,80,0.00,,OVC012,0.00,VWS V12.08,2013-06-19 13:22:00,
2013-06-19 09:27:00,65.9,58.8,30.03,NNE,21,0.0,0.0,78,0.00,,OVC012,0.00,VWS V12.08,2013-06-19 13:27:00,
2013-06-19 09:32:00,65.7,57.2,30.03,NE,43,0.0,0.0,74,0.00,,OVC012,0.00,VWS V12.08,2013-06-19 13:32:00,
2013-06-19 09:37:00,65.9,58.5,30.03,NE,37,0.0,0.0,77,0.00,,OVC012,0.00,VWS V12.08,2013-06-19 13:37:00,
2013-06-19 09:42:00,66.2,58.1,30.03,NE,34,0.0,0.0,75,0.00,,OVC012,0.00,VWS V12.08,2013-06-19 13:42:00,
2013-06-19 09:47:00,66.2,57.7,30.03,NE,39,0.0,0.0,74,0.00,,OVC012,0.00,VWS V12.08,2013-06-19 13:47:00,
2013-06-19 09:52:00,67.0,58.8,30.03,NNE,18,0.0,0.0,75,0.00,,OVC012,0.00,VWS V12.08,2013-06-19 13:52:00,
2013-06-19 09:57:00,66.4,56.7,30.03,NNE,31,0.0,0.0,71,0.00,,OVC012,0.00,VWS V12.08,2013-06-19 13:57:00,
2013-06-19 10:02:00,67.1,58.2,30.03,NNE,29,0.0,0.0,73,0.00,,OVC012,0.00,VWS V12.08,2013-06-19 14:02:00,
2013-06-19 10:07:00,68.4,57.8,30.03,NNE,31,2.7,4.9,69,0.00,,OVC012,0.00,VWS V12.08,2013-06-19 14:07:00,
2013-06-19 10:12:00,70.0,58.2,30.03,SSW,212,0.0,4.0,66,0.00,,OVC012,0.00,VWS V12.08,2013-06-19 14:12:00,
2013-06-19 10:17:00,70.9,55.4,30.03,NNE,32,5.4,6.3,58,0.00,,OVC012,0.00,VWS V12.08,2013-06-19 14:17:00,
2013-06-19 10:22:00,71.3,56.2,30.03,ENE,78,3.1,4.0,59,0.00,,OVC012,0.00,VWS V12.08,2013-06-19 14:22:00,
2013-06-19 10:27:00,71.3,56.2,30.03,NE,34,3.1,4.0,59,0.00,,OVC012,0.00,VWS V12.08,2013-06-19 14:27:00,
2013-06-19 10:32:00,70.0,54.1,30.03,NE,43,4.9,5.4,57,0.00,,OVC012,0.00,VWS V12.08,2013-06-19 14:32:00,
2013-06-19 10:37:00,70.6,57.4,30.03,WSW,238,0.0,0.0,63,0.00,,OVC012,0.00,VWS V12.08,2013-06-19 14:37:00,
2013-06-19 10:42:00,71.3,55.3,30.03,NNW,334,0.0,6.3,57,0.00,,OVC012,0.00,VWS V12.08,2013-06-19 14:42:00,
2013-06-19 10:47:00,72.4,55.3,30.03,South,184,0.0,4.0,55,0.00,,OVC012,0.00,VWS V12.08,2013-06-19 14:47:00,
2013-06-19 10:52:00,72.2,56.1,30.03,North,357,0.0,3.1,57,0.00,,OVC012,0.00,VWS V12.08,2013-06-19 14:52:00,
2013-06-19 10:57:00,71.5,54.5,30.03,East,84,3.1,4.0,55,0.00,,OVC012,0.00,VWS V12.08,2013-06-19 14:57:00,
2013-06-19 11:02:00,72.0,55.5,30.03,NNE,16,3.6,4.9,56,0.00,,OVC012,0.00,VWS V12.08,2013-06-19 15:02:00,
2013-06-19 11:07:00,72.5,54.5,30.06,North,357,6.3,6.3,53,0.00,,OVC012,0.00,VWS V12.08,2013-06-19 15:07:00,
2013-06-19 11:12:00,73.3,54.6,30.06,NE,40,2.2,4.0,52,0.00,,OVC012,0.00,VWS V12.08,2013-06-19 15:12:00,
2013-06-19 11:17:00,74.2,54.3,30.06,NNE,28,4.0,6.7,50,0.00,,OVC012,0.00,VWS V12.08,2013-06-19 15:17:00,
2013-06-19 11:22:00,73.8,57.1,30.06,ESE,116,3.6,4.0,56,0.00,,OVC012,0.00,VWS V12.08,2013-06-19 15:22:00,
2013-06-19 11:27:00,74.3,55.1,30.06,North,353,6.3,7.2,51,0.00,,OVC012,0.00,VWS V12.08,2013-06-19 15:27:00,
2013-06-19 11:32:00,75.2,56.4,30.06,NE,41,4.0,4.0,52,0.00,,OVC012,0.00,VWS V12.08,2013-06-19 15:32:00,
2013-06-19 11:37:00,75.4,53.2,30.06,NNE,24,0.0,6.3,46,0.00,,OVC012,0.00,VWS V12.08,2013-06-19 15:37:00,
2013-06-19 11:42:00,76.3,54.6,30.06,North,357,0.0,5.4,47,0.00,,OVC012,0.00,VWS V12.08,2013-06-19 15:42:00,
2013-06-19 11:47:00,76.9,53.3,30.06,NW,317,4.9,4.9,44,0.00,,OVC012,0.00,VWS V12.08,2013-06-19 15:47:00,
2013-06-19 11:52:00,77.2,53.0,30.06,ENE,71,2.2,4.0,43,0.00,,OVC012,0.00,VWS V12.08,2013-06-19 15:52:00,
2013-06-19 11:57:00,76.7,53.8,30.06,WSW,240,0.0,2.7,45,0.00,,OVC012,0.00,VWS V12.08,2013-06-19 15:57:00,
2013-06-19 12:02:00,76.5,51.7,30.06,NNE,31,2.7,5.4,42,0.00,,BKN016,0.00,VWS V12.08,2013-06-19 16:02:00,
2013-06-19 12:07:00,77.4,53.8,30.06,NNE,21,6.3,6.3,44,0.00,,BKN016,0.00,VWS V12.08,2013-06-19 16:07:00,
2013-06-19 12:12:00,77.6,55.2,30.06,SSW,193,2.2,5.4,46,0.00,,BKN016,0.00,VWS V12.08,2013-06-19 16:12:00,
2013-06-19 12:17:00,76.7,52.5,30.06,SSW,203,0.0,2.7,43,0.00,,BKN016,0.00,VWS V12.08,2013-06-19 16:17:00,
2013-06-19 12:22:00,74.3,50.4,30.06,North,10,4.0,5.4,43,0.00,,BKN016,0.00,VWS V12.08,2013-06-19 16:22:00,
2013-06-19 12:27:00,75.8,53.0,30.06,North,2,4.9,6.3,45,0.00,,BKN016,0.00,VWS V12.08,2013-06-19 16:27:00,
2013-06-19 12:32:00,74.2,52.7,30.06,NNE,31,5.8,7.6,47,0.00,,BKN016,0.00,VWS V12.08,2013-06-19 16:32:00,
2013-06-19 12:37:00,74.9,52.1,30.06,ENE,60,6.3,6.3,45,0.00,,BKN016,0.00,VWS V12.08,2013-06-19 16:37:00,
2013-06-19 12:42:00,75.8,53.0,30.06,SSW,207,0.0,2.7,45,0.00,,BKN016,0.00,VWS V12.08,2013-06-19 16:42:00,
2013-06-19 12:47:00,77.8,54.1,30.06,NNW,336,3.6,3.6,44,0.00,,BKN016,0.00,VWS V12.08,2013-06-19 16:47:00,
2013-06-19 12:52:00,75.2,51.2,30.06,NE,44,2.2,4.9,43,0.00,,BKN016,0.00,VWS V12.08,2013-06-19 16:52:00,
2013-06-19 12:57:00,74.7,52.0,30.06,North,3,3.1,3.6,45,0.00,,BKN016,0.00,VWS V12.08,2013-06-19 16:57:00,
2013-06-19 13:02:00,75.1,54.6,30.06,East,86,0.0,3.1,49,0.00,,BKN027,0.00,VWS V12.08,2013-06-19 17:02:00,
2013-06-19 13:07:00,74.7,53.2,30.06,ESE,116,4.9,4.9,47,0.00,,BKN027,0.00,VWS V12.08,2013-06-19 17:07:00,
2013-06-19 13:12:00,73.3,52.4,30.06,NNE,21,3.6,5.4,48,0.00,,BKN027,0.00,VWS V12.08,2013-06-19 17:12:00,
2013-06-19 13:17:00,74.3,52.8,30.06,NE,36,4.0,5.8,47,0.00,,BKN027,0.00,VWS V12.08,2013-06-19 17:17:00,
2013-06-19 13:22:00,75.1,51.1,30.06,NE,55,3.1,8.3,43,0.00,,BKN027,0.00,VWS V12.08,2013-06-19 17:22:00,
2013-06-19 13:27:00,74.3,51.0,30.06,East,85,0.0,4.0,44,0.00,,BKN027,0.00,VWS V12.08,2013-06-19 17:27:00,
2013-06-19 13:32:00,74.7,52.6,30.06,East,97,0.0,2.7,46,0.00,,BKN027,0.00,VWS V12.08,2013-06-19 17:32:00,
2013-06-19 13:37:00,76.7,51.2,30.06,SSE,152,0.0,3.1,41,0.00,,BKN027,0.00,VWS V12.08,2013-06-19 17:37:00,
2013-06-19 13:42:00,78.7,50.2,30.06,NNW,332,2.7,3.6,37,0.00,,BKN027,0.00,VWS V12.08,2013-06-19 17:42:00,
2013-06-19 13:47:00,78.7,51.0,30.06,ENE,75,7.2,7.2,38,0.00,,BKN027,0.00,VWS V12.08,2013-06-19 17:47:00,
2013-06-19 13:52:00,77.8,50.8,30.06,West,280,2.2,5.8,39,0.00,,BKN027,0.00,VWS V12.08,2013-06-19 17:52:00,
2013-06-19 13:57:00,74.9,49.6,30.06,North,7,7.6,7.6,41,0.00,,BKN027,0.00,VWS V12.08,2013-06-19 17:57:00,
2013-06-19 14:02:00,72.9,49.1,30.06,NNE,20,5.4,5.8,43,0.00,,BKN027,0.00,VWS V12.08,2013-06-19 18:02:00,
2013-06-19 14:07:00,74.2,50.2,30.06,NNE,14,7.6,7.6,43,0.00,,BKN027,0.00,VWS V12.08,2013-06-19 18:07:00,
2013-06-19 14:12:00,75.1,49.1,30.06,NE,51,4.5,4.9,40,0.00,,BKN027,0.00,VWS V12.08,2013-06-19 18:12:00,
2013-06-19 14:17:00,76.3,50.9,30.06,North,357,5.4,5.4,41,0.00,,BKN027,0.00,VWS V12.08,2013-06-19 18:17:00,
2013-06-19 14:22:00,77.6,47.8,30.06,NE,37,5.4,6.3,35,0.00,,BKN027,0.00,VWS V12.08,2013-06-19 18:22:00,
2013-06-19 14:27:00,78.1,48.3,30.06,NNE,31,3.1,5.4,35,0.00,,BKN027,0.00,VWS V12.08,2013-06-19 18:27:00,
2013-06-19 14:32:00,78.3,49.2,30.06,ENE,74,3.1,3.1,36,0.00,,BKN027,0.00,VWS V12.08,2013-06-19 18:32:00,
2013-06-19 14:37:00,77.8,51.5,30.03,NNE,14,5.4,8.1,40,0.00,,BKN027,0.00,VWS V12.08,2013-06-19 18:37:00,
2013-06-19 14:42:00,77.4,52.5,30.03,North,10,2.7,5.8,42,0.00,,BKN027,0.00,VWS V12.08,2013-06-19 18:42:00,
2013-06-19 14:47:00,77.6,51.4,30.03,NNE,17,2.7,3.1,40,0.00,,BKN027,0.00,VWS V12.08,2013-06-19 18:47:00,
2013-06-19 14:52:00,77.6,50.0,30.06,North,1,5.4,8.3,38,0.00,,BKN027,0.00,VWS V12.08,2013-06-19 18:52:00,
2013-06-19 14:57:00,77.9,51.0,30.06,ENE,60,5.4,6.3,39,0.00,,BKN027,0.00,VWS V12.08,2013-06-19 18:57:00,
2013-06-19 15:02:00,77.8,48.7,30.06,NNE,13,2.2,4.0,36,0.00,,CLR,0.00,VWS V12.08,2013-06-19 19:02:00,
2013-06-19 15:07:00,78.3,49.2,30.06,NE,44,3.1,4.0,36,0.00,,CLR,0.00,VWS V12.08,2013-06-19 19:07:00,
2013-06-19 15:12:00,79.6,53.1,30.06,ENE,58,7.2,7.2,40,0.00,,CLR,0.00,VWS V12.08,2013-06-19 19:12:00,
2013-06-19 15:17:00,75.4,48.8,30.06,North,357,10.1,10.1,39,0.00,,CLR,0.00,VWS V12.08,2013-06-19 19:17:00,
2013-06-19 15:23:00,74.7,48.8,30.06,ENE,67,7.6,7.6,40,0.00,,CLR,0.00,VWS V12.08,2013-06-19 19:23:00,
2013-06-19 15:28:00,75.4,49.4,30.06,NNE,14,3.6,5.8,40,0.00,,CLR,0.00,VWS V12.08,2013-06-19 19:28:00,
2013-06-19 15:33:00,77.2,51.0,30.06,SE,137,2.2,4.9,40,0.00,,CLR,0.00,VWS V12.08,2013-06-19 19:33:00,
2013-06-19 15:38:00,77.8,50.8,30.03,NE,34,4.9,5.4,39,0.00,,CLR,0.00,VWS V12.08,2013-06-19 19:38:00,
2013-06-19 15:43:00,78.1,49.0,30.03,ESE,106,0.0,3.6,36,0.00,,CLR,0.00,VWS V12.08,2013-06-19 19:43:00,
2013-06-19 15:48:00,79.0,47.5,30.03,ESE,117,0.0,3.6,33,0.00,,CLR,0.00,VWS V12.08,2013-06-19 19:48:00,
2013-06-19 15:53:00,78.7,47.2,30.03,NNE,14,5.4,8.3,33,0.00,,CLR,0.00,VWS V12.08,2013-06-19 19:53:00,
2013-06-19 15:58:00,78.1,48.3,30.03,North,7,3.1,4.0,35,0.00,,CLR,0.00,VWS V12.08,2013-06-19 19:58:00,
2013-06-19 16:03:00,78.1,47.5,30.03,NNE,19,3.6,4.0,34,0.00,,FEW041,0.00,VWS V12.08,2013-06-19 20:03:00,
2013-06-19 16:08:00,77.4,47.6,30.03,NNE,24,4.9,5.8,35,0.00,,FEW041,0.00,VWS V12.08,2013-06-19 20:08:00,
2013-06-19 16:13:00,76.7,47.8,30.03,ENE,62,4.0,6.3,36,0.00,,FEW041,0.00,VWS V12.08,2013-06-19 20:13:00,
2013-06-19 16:18:00,76.5,46.1,30.03,NNE,12,3.1,6.3,34,0.00,,FEW041,0.00,VWS V12.08,2013-06-19 20:18:00,
2013-06-19 16:23:00,75.8,49.1,30.03,ENE,61,5.4,5.4,39,0.00,,FEW041,0.00,VWS V12.08,2013-06-19 20:23:00,
2013-06-19 16:28:00,74.3,49.1,30.03,NNE,19,4.0,6.3,41,0.00,,FEW041,0.00,VWS V12.08,2013-06-19 20:28:00,
2013-06-19 16:33:00,73.3,48.8,30.03,NE,39,3.6,4.0,42,0.00,,FEW041,0.00,VWS V12.08,2013-06-19 20:33:00,
2013-06-19 16:38:00,73.3,48.2,30.03,North,11,5.4,7.6,41,0.00,,FEW041,0.00,VWS V12.08,2013-06-19 20:38:00,
2013-06-19 16:43:00,74.3,51.0,30.03,NNE,30,4.9,5.4,44,0.00,,FEW041,0.00,VWS V12.08,2013-06-19 20:43:00,
2013-06-19 16:48:00,75.1,50.4,30.03,NE,56,4.9,4.9,42,0.00,,FEW041,0.00,VWS V12.08,2013-06-19 20:48:00,
2013-06-19 16:53:00,75.2,49.9,30.03,NE,34,3.6,4.0,41,0.00,,FEW041,0.00,VWS V12.08,2013-06-19 20:53:00,
2013-06-19 16:58:00,74.9,49.6,30.03,NE,41,0.0,3.1,41,0.00,,FEW041,0.00,VWS V12.08,2013-06-19 20:58:00,
2013-06-19 17:03:00,74.5,49.3,30.03,North,357,0.0,3.6,41,0.00,,CLR,0.00,VWS V12.08,2013-06-19 21:03:00,
2013-06-19 17:08:00,74.7,49.5,30.03,ENE,57,4.0,5.4,41,0.00,,CLR,0.00,VWS V12.08,2013-06-19 21:08:00,
2013-06-19 17:13:00,75.1,49.8,30.03,SE,132,4.9,6.3,41,0.00,,CLR,0.00,VWS V12.08,2013-06-19 21:13:00,
2013-06-19 17:18:00,74.9,48.3,30.03,ENE,61,3.6,7.2,39,0.00,,CLR,0.00,VWS V12.08,2013-06-19 21:18:00,
2013-06-19 17:23:00,74.9,49.0,30.03,NE,36,4.0,5.4,40,0.00,,CLR,0.00,VWS V12.08,2013-06-19 21:23:00,
2013-06-19 17:28:00,75.1,49.1,30.03,NNE,12,3.1,4.9,40,0.00,,CLR,0.00,VWS V12.08,2013-06-19 21:28:00,
2013-06-19 17:33:00,74.9,47.6,30.03,NNE,33,3.6,4.9,38,0.00,,CLR,0.00,VWS V12.08,2013-06-19 21:33:00,
2013-06-19 17:38:00,74.9,49.6,30.03,NE,51,3.1,3.1,41,0.00,,CLR,0.00,VWS V12.08,2013-06-19 21:38:00,
2013-06-19 17:43:00,74.7,47.4,30.03,NE,55,3.1,5.4,38,0.00,,CLR,0.00,VWS V12.08,2013-06-19 21:43:00,
2013-06-19 17:48:00,74.7,48.8,30.03,NNE,30,3.1,4.9,40,0.00,,CLR,0.00,VWS V12.08,2013-06-19 21:48:00,
2013-06-19 17:53:00,74.3,47.1,30.03,NNE,16,0.0,3.6,38,0.00,,CLR,0.00,VWS V12.08,2013-06-19 21:53:00,
2013-06-19 17:58:00,73.8,49.3,30.03,NE,35,3.1,4.0,42,0.00,,CLR,0.00,VWS V12.08,2013-06-19 21:58:00,
2013-06-19 18:03:00,73.3,50.7,30.03,NE,49,2.7,4.0,45,0.00,,SCT090,0.00,VWS V12.08,2013-06-19 22:03:00,
2013-06-19 18:08:00,72.9,47.8,30.03,WSW,247,0.0,0.0,41,0.00,,SCT090,0.00,VWS V12.08,2013-06-19 22:08:00,
2013-06-19 18:13:00,73.1,48.0,30.03,NE,38,3.6,6.3,41,0.00,,SCT090,0.00,VWS V12.08,2013-06-19 22:13:00,
2013-06-19 18:18:00,72.9,47.8,30.03,NE,55,0.0,0.0,41,0.00,,SCT090,0.00,VWS V12.08,2013-06-19 22:18:00,
2013-06-19 18:23:00,72.9,48.5,30.03,NNE,20,0.0,2.7,42,0.00,,SCT090,0.00,VWS V12.08,2013-06-19 22:23:00,
2013-06-19 18:28:00,72.7,48.3,30.03,NE,36,3.6,4.9,42,0.00,,SCT090,0.00,VWS V12.08,2013-06-19 22:28:00,
2013-06-19 18:33:00,72.5,47.5,30.03,NE,45,3.6,4.0,41,0.00,,SCT090,0.00,VWS V12.08,2013-06-19 22:33:00,
2013-06-19 18:38:00,72.5,46.9,30.03,NE,43,3.6,4.0,40,0.00,,SCT090,0.00,VWS V12.08,2013-06-19 22:38:00,
2013-06-19 18:43:00,72.5,48.2,30.03,NE,42,2.2,3.6,42,0.00,,SCT090,0.00,VWS V12.08,2013-06-19 22:43:00,
2013-06-19 18:48:00,72.4,48.0,30.03,NE,38,2.7,3.6,42,0.00,,SCT090,0.00,VWS V12.08,2013-06-19 22:48:00,
2013-06-19 18:53:00,72.2,47.8,30.03,NE,45,2.7,4.9,42,0.00,,SCT090,0.00,VWS V12.08,2013-06-19 22:53:00,
2013-06-19 18:58:00,72.0,47.0,30.03,NE,44,2.7,4.0,41,0.00,,SCT090,0.00,VWS V12.08,2013-06-19 22:58:00,
2013-06-19 19:03:00,71.8,46.9,30.03,NE,37,0.0,5.4,41,0.00,,SCT055,0.00,VWS V12.08,2013-06-19 23:03:00,
2013-06-19 19:08:00,71.8,46.9,30.03,NE,35,5.4,5.4,41,0.00,,SCT055,0.00,VWS V12.08,2013-06-19 23:08:00,
2013-06-19 19:13:00,71.6,46.7,30.03,ENE,72,3.1,6.3,41,0.00,,SCT055,0.00,VWS V12.08,2013-06-19 23:13:00,
2013-06-19 19:18:00,71.5,46.5,30.03,ENE,57,3.1,4.9,41,0.00,,SCT055,0.00,VWS V12.08,2013-06-19 23:18:00,
2013-06-19 19:23:00,71.3,47.0,30.06,NE,34,2.7,3.6,42,0.00,,SCT055,0.00,VWS V12.08,2013-06-19 23:23:00,
2013-06-19 19:28:00,71.3,46.4,30.06,East,86,4.9,5.4,41,0.00,,SCT055,0.00,VWS V12.08,2013-06-19 23:28:00,
2013-06-19 19:33:00,71.1,46.9,30.06,NE,35,4.0,4.0,42,0.00,,SCT055,0.00,VWS V12.08,2013-06-19 23:33:00,
2013-06-19 19:38:00,70.9,46.7,30.06,ENE,70,5.8,6.3,42,0.00,,SCT055,0.00,VWS V12.08,2013-06-19 23:38:00,
2013-06-19 19:43:00,70.9,46.7,30.06,NE,39,2.7,4.0,42,0.00,,SCT055,0.00,VWS V12.08,2013-06-19 23:43:00,
2013-06-19 19:48:00,70.7,47.2,30.06,NNE,25,3.1,3.6,43,0.00,,SCT055,0.00,VWS V12.08,2013-06-19 23:48:00,
2013-06-19 19:53:00,70.4,46.8,30.06,NNE,30,3.1,4.0,43,0.00,,SCT055,0.00,VWS V12.08,2013-06-19 23:53:00,
2013-06-19 19:58:00,70.2,46.7,30.06,NNE,32,0.0,3.1,43,0.00,,SCT055,0.00,VWS V12.08,2013-06-19 23:58:00,
2013-06-19 20:03:00,69.8,47.0,30.06,NNE,32,0.0,0.0,44,0.00,,CLR,0.00,VWS V12.08,2013-06-20 00:03:00,
2013-06-19 20:08:00,69.5,47.8,30.06,NNE,19,2.2,2.7,46,0.00,,CLR,0.00,VWS V12.08,2013-06-20 00:08:00,
2013-06-19 20:13:00,69.1,47.5,30.06,NNE,18,0.0,0.0,46,0.00,,CLR,0.00,VWS V12.08,2013-06-20 00:13:00,
2013-06-19 20:18:00,68.9,47.9,30.06,NNE,18,0.0,0.0,47,0.00,,CLR,0.00,VWS V12.08,2013-06-20 00:18:00,
2013-06-19 20:23:00,68.6,47.6,30.06,NNE,18,0.0,0.0,47,0.00,,CLR,0.00,VWS V12.08,2013-06-20 00:23:00,
2013-06-19 20:28:00,68.4,47.4,30.06,NNE,31,0.0,0.0,47,0.00,,CLR,0.00,VWS V12.08,2013-06-20 00:28:00,
2013-06-19 20:33:00,68.2,48.3,30.06,NNE,32,0.0,0.0,49,0.00,,CLR,0.00,VWS V12.08,2013-06-20 00:33:00,
2013-06-19 20:38:00,67.9,47.5,30.06,NNE,31,0.0,0.0,48,0.00,,CLR,0.00,VWS V12.08,2013-06-20 00:38:00,
2013-06-19 20:43:00,67.5,47.1,30.06,NNE,32,0.0,0.0,48,0.00,,CLR,0.00,VWS V12.08,2013-06-20 00:43:00,
2013-06-19 20:48:00,67.3,48.1,30.06,NNE,31,0.0,0.0,50,0.00,,CLR,0.00,VWS V12.08,2013-06-20 00:48:00,
2013-06-19 20:53:00,67.0,48.8,30.06,NNE,32,0.0,0.0,52,0.00,,CLR,0.00,VWS V12.08,2013-06-20 00:53:00,
2013-06-19 20:58:00,66.8,48.6,30.06,NNE,31,0.0,0.0,52,0.00,,CLR,0.00,VWS V12.08,2013-06-20 00:58:00,
2013-06-19 21:03:00,66.6,49.0,30.06,NNE,32,0.0,0.0,53,0.00,,CLR,0.00,VWS V12.08,2013-06-20 01:03:00,
2013-06-19 21:08:00,66.2,48.6,30.06,NNE,32,0.0,0.0,53,0.00,,CLR,0.00,VWS V12.08,2013-06-20 01:08:00,
2013-06-19 21:13:00,66.1,49.0,30.06,NNE,31,0.0,0.0,54,0.00,,CLR,0.00,VWS V12.08,2013-06-20 01:13:00,
2013-06-19 21:18:00,65.9,49.3,30.06,NNE,31,0.0,0.0,55,0.00,,CLR,0.00,VWS V12.08,2013-06-20 01:18:00,
2013-06-19 21:23:00,65.7,49.1,30.06,NNE,32,0.0,0.0,55,0.00,,CLR,0.00,VWS V12.08,2013-06-20 01:23:00,
2013-06-19 21:28:00,65.5,48.9,30.06,NNE,32,0.0,0.0,55,0.00,,CLR,0.00,VWS V12.08,2013-06-20 01:28:00,
2013-06-19 21:33:00,65.3,48.8,30.06,NNE,31,0.0,0.0,55,0.00,,CLR,0.00,VWS V12.08,2013-06-20 01:33:00,
2013-06-19 21:38:00,65.2,49.1,30.06,NNE,32,0.0,0.0,56,0.00,,CLR,0.00,VWS V12.08,2013-06-20 01:38:00,
2013-06-19 21:43:00,65.0,48.9,30.06,NNE,32,0.0,0.0,56,0.00,,CLR,0.00,VWS V12.08,2013-06-20 01:43:00,
2013-06-19 21:48:00,65.0,48.9,30.06,NNE,32,0.0,0.0,56,0.00,,CLR,0.00,VWS V12.08,2013-06-20 01:48:00,
2013-06-19 21:53:00,64.8,48.8,30.09,NNE,32,0.0,0.0,56,0.00,,CLR,0.00,VWS V12.08,2013-06-20 01:53:00,
2013-06-19 21:58:00,64.4,48.4,30.09,NNE,32,0.0,0.0,56,0.00,,CLR,0.00,VWS V12.08,2013-06-20 01:58:00,
2013-06-19 22:03:00,64.3,48.2,30.09,NNE,32,0.0,0.0,56,0.00,,CLR,0.00,VWS V12.08,2013-06-20 02:03:00,
2013-06-19 22:08:00,64.1,48.1,30.09,NE,42,3.6,3.6,56,0.00,,CLR,0.00,VWS V12.08,2013-06-20 02:08:00,
2013-06-19 22:13:00,64.1,48.1,30.09,NE,37,0.0,0.0,56,0.00,,CLR,0.00,VWS V12.08,2013-06-20 02:13:00,
2013-06-19 22:18:00,63.9,47.9,30.09,NE,37,0.0,0.0,56,0.00,,CLR,0.00,VWS V12.08,2013-06-20 02:18:00,
2013-06-19 22:23:00,63.9,48.4,30.09,NE,37,0.0,0.0,57,0.00,,CLR,0.00,VWS V12.08,2013-06-20 02:23:00,
2013-06-19 22:28:00,63.7,48.2,30.09,NE,37,0.0,0.0,57,0.00,,CLR,0.00,VWS V12.08,2013-06-20 02:28:00,
2013-06-19 22:33:00,63.5,47.6,30.09,NE,37,0.0,0.0,56,0.00,,CLR,0.00,VWS V12.08,2013-06-20 02:33:00,
2013-06-19 22:38:00,63.5,47.6,30.09,NE,37,0.0,0.0,56,0.00,,CLR,0.00,VWS V12.08,2013-06-20 02:38:00,
2013-06-19 22:43:00,63.4,46.9,30.09,NE,37,0.0,0.0,55,0.00,,CLR,0.00,VWS V12.08,2013-06-20 02:43:00,
2013-06-19 22:48:00,63.4,46.9,30.09,NE,37,0.0,0.0,55,0.00,,CLR,0.00,VWS V12.08,2013-06-20 02:48:00,
2013-06-19 22:53:00,63.0,46.6,30.09,NE,37,0.0,0.0,55,0.00,,CLR,0.00,VWS V12.08,2013-06-20 02:53:00,
2013-06-19 22:58:00,62.8,46.9,30.09,NE,37,0.0,0.0,56,0.00,,CLR,0.00,VWS V12.08,2013-06-20 02:58:00,
2013-06-19 23:03:00,62.6,47.7,30.09,NE,37,0.0,0.0,58,0.00,,CLR,0.00,VWS V12.08,2013-06-20 03:03:00,
2013-06-19 23:08:00,62.5,48.4,30.09,NE,37,0.0,0.0,60,0.00,,CLR,0.00,VWS V12.08,2013-06-20 03:08:00,
2013-06-19 23:13:00,62.1,48.1,30.09,NE,37,0.0,0.0,60,0.00,,CLR,0.00,VWS V12.08,2013-06-20 03:13:00,
2013-06-19 23:18:00,61.9,48.3,30.11,NE,37,0.0,0.0,61,0.00,,CLR,0.00,VWS V12.08,2013-06-20 03:18:00,
2013-06-19 23:23:00,61.7,48.6,30.11,NE,37,0.0,0.0,62,0.00,,CLR,0.00,VWS V12.08,2013-06-20 03:23:00,
2013-06-19 23:28:00,61.6,49.3,30.11,NE,37,0.0,0.0,64,0.00,,CLR,0.00,VWS V12.08,2013-06-20 03:28:00,
2013-06-19 23:33:00,61.4,49.5,30.11,NE,37,0.0,0.0,65,0.00,,CLR,0.00,VWS V12.08,2013-06-20 03:33:00,
2013-06-19 23:38:00,61.2,50.2,30.11,NE,37,0.0,0.0,67,0.00,,CLR,0.00,VWS V12.08,2013-06-20 03:38:00,
2013-06-19 23:43:00,61.2,50.6,30.11,NE,37,0.0,0.0,68,0.00,,CLR,0.00,VWS V12.08,2013-06-20 03:43:00,
2013-06-19 23:48:00,61.2,50.6,30.11,NE,37,0.0,0.0,68,0.00,,CLR,0.00,VWS V12.08,2013-06-20 03:48:00,
2013-06-19 23:53:00,61.0,51.2,30.11,NE,37,0.0,0.0,70,0.00,,CLR,0.00,VWS V12.08,2013-06-20 03:53:00,
2013-06-19 23:58:00,60.8,51.4,30.11,NE,37,0.0,0.0,71,0.00,,CLR,0.00,VWS V12.08,2013-06-20 03:58:00,